createdAt,value
2017-08-14T00:00:56.989Z,16.60
2017-08-14T00:03:26.649Z,16.60
2017-08-14T00:05:56.156Z,16.60
2017-08-14T00:08:25.363Z,16.60
2017-08-14T00:10:55.051Z,16.60
2017-08-14T00:13:24.721Z,16.70
2017-08-14T00:15:54.123Z,16.70
2017-08-14T00:18:23.796Z,16.60
2017-08-14T00:20:54.259Z,16.50
2017-08-14T00:23:23.945Z,16.50
2017-08-14T00:25:54.413Z,16.40
2017-08-14T00:28:23.877Z,16.40
2017-08-14T00:30:54.334Z,16.30
2017-08-14T00:33:24.021Z,16.20
2017-08-14T00:35:54.121Z,16.20
2017-08-14T00:38:23.822Z,16.20
2017-08-14T00:40:53.288Z,16.20
2017-08-14T00:43:22.774Z,16.20
2017-08-14T00:45:52.239Z,16.10
2017-08-14T00:48:21.985Z,16.10
2017-08-14T00:50:51.655Z,16.10
2017-08-14T00:53:22.129Z,16.10
2017-08-14T00:55:51.807Z,16.10
2017-08-14T00:58:22.262Z,16.10
2017-08-14T01:00:51.579Z,16.10
2017-08-14T01:03:21.059Z,16.10
2017-08-14T01:05:50.737Z,16.10
2017-08-14T01:08:21.186Z,16.10
2017-08-14T01:10:50.867Z,16.00
2017-08-14T01:13:20.566Z,16.00
2017-08-14T01:15:50.231Z,16.00
2017-08-14T01:18:19.913Z,16.00
2017-08-14T01:20:50.362Z,15.90
2017-08-14T01:23:20.046Z,15.90
2017-08-14T01:25:50.501Z,15.80
2017-08-14T01:28:20.160Z,15.80
2017-08-14T01:30:49.832Z,15.80
2017-08-14T01:33:19.507Z,15.80
2017-08-14T01:35:49.957Z,15.90
2017-08-14T01:38:19.635Z,15.80
2017-08-14T01:40:50.068Z,15.80
2017-08-14T01:43:20.519Z,15.80
2017-08-14T01:45:50.203Z,15.80
2017-08-14T01:48:20.468Z,15.80
2017-08-14T01:50:50.134Z,15.80
2017-08-14T01:53:20.599Z,15.80
2017-08-14T01:55:50.279Z,15.80
2017-08-14T01:58:20.759Z,15.70
2017-08-14T02:00:50.427Z,15.70
2017-08-14T02:03:20.874Z,15.70
2017-08-14T02:05:50.555Z,15.70
2017-08-14T02:08:20.802Z,15.70
2017-08-14T02:10:50.483Z,15.70
2017-08-14T02:13:20.955Z,15.80
2017-08-14T02:15:50.618Z,15.70
2017-08-14T02:18:21.077Z,15.80
2017-08-14T02:20:50.750Z,15.80
2017-08-14T02:23:21.000Z,15.90
2017-08-14T02:25:50.661Z,15.90
2017-08-14T02:28:20.327Z,15.90
2017-08-14T02:30:50.016Z,15.90
2017-08-14T02:33:20.132Z,15.80
2017-08-14T02:35:50.587Z,15.70
2017-08-14T02:38:20.277Z,15.80
2017-08-14T02:40:50.709Z,15.80
2017-08-14T02:43:20.361Z,15.70
2017-08-14T02:45:50.054Z,15.80
2017-08-14T02:48:19.719Z,15.80
2017-08-14T02:50:49.401Z,15.80
2017-08-14T02:53:18.852Z,15.80
2017-08-14T02:55:48.535Z,15.80
2017-08-14T02:58:18.954Z,15.80
2017-08-14T03:00:49.470Z,15.80
2017-08-14T03:03:18.926Z,15.80
2017-08-14T03:05:48.583Z,15.90
2017-08-14T03:08:18.259Z,15.90
2017-08-14T03:10:47.945Z,16.00
2017-08-14T03:13:17.620Z,16.10
2017-08-14T03:15:48.086Z,16.20
2017-08-14T03:18:17.745Z,16.20
2017-08-14T03:20:48.196Z,16.40
2017-08-14T03:23:17.863Z,16.30
2017-08-14T03:25:47.542Z,16.40
2017-08-14T03:28:17.215Z,16.40
2017-08-14T03:30:47.684Z,16.30
2017-08-14T03:33:17.371Z,16.20
2017-08-14T03:35:47.111Z,16.20
2017-08-14T03:38:16.762Z,16.20
2017-08-14T03:40:46.428Z,16.20
2017-08-14T03:43:16.114Z,16.20
2017-08-14T03:45:46.531Z,16.10
2017-08-14T03:48:16.977Z,16.10
2017-08-14T03:50:46.643Z,16.10
2017-08-14T03:53:16.328Z,16.20
2017-08-14T03:55:45.998Z,16.10
2017-08-14T03:58:15.660Z,16.10
2017-08-14T04:00:46.086Z,16.10
2017-08-14T04:03:16.535Z,16.00
2017-08-14T04:05:46.948Z,16.10
2017-08-14T04:08:17.385Z,16.10
2017-08-14T04:10:47.130Z,16.10
2017-08-14T04:13:17.587Z,16.50
2017-08-14T04:15:47.272Z,16.50
2017-08-14T04:18:16.622Z,16.70
2017-08-14T04:20:46.320Z,16.80
2017-08-14T04:23:16.040Z,16.90
2017-08-14T04:25:45.791Z,16.80
2017-08-14T04:28:16.665Z,17.00
2017-08-14T04:30:46.057Z,16.90
2017-08-14T04:33:16.231Z,16.80
2017-08-14T04:35:45.624Z,16.80
2017-08-14T04:38:15.043Z,16.80
2017-08-14T04:40:44.697Z,16.80
2017-08-14T04:43:14.096Z,16.80
2017-08-14T04:45:43.758Z,16.80
2017-08-14T04:48:13.448Z,16.80
2017-08-14T04:50:42.857Z,16.90
2017-08-14T04:53:12.532Z,16.90
2017-08-14T04:55:41.771Z,17.00
2017-08-14T04:58:11.435Z,16.90
2017-08-14T05:00:41.117Z,17.00
2017-08-14T05:03:10.581Z,16.80
2017-08-14T05:05:41.045Z,16.70
2017-08-14T05:08:10.458Z,16.70
2017-08-14T05:10:40.158Z,16.70
2017-08-14T05:13:09.809Z,16.70
2017-08-14T05:15:39.507Z,16.70
2017-08-14T05:18:09.807Z,16.60
2017-08-14T05:20:39.510Z,16.70
2017-08-14T05:23:09.174Z,16.90
2017-08-14T05:25:38.601Z,17.30
2017-08-14T05:28:08.260Z,17.50
2017-08-14T05:30:37.657Z,17.70
2017-08-14T05:33:07.129Z,17.80
2017-08-14T05:35:36.543Z,18.00
2017-08-14T05:38:06.684Z,18.20
2017-08-14T05:40:36.093Z,18.20
2017-08-14T05:43:05.473Z,18.40
2017-08-14T05:45:35.462Z,18.70
2017-08-14T05:48:04.838Z,18.60
2017-08-14T05:50:34.252Z,18.90
2017-08-14T05:53:03.442Z,19.10
2017-08-14T05:55:32.845Z,19.30
2017-08-14T05:58:02.249Z,19.50
2017-08-14T06:00:31.639Z,19.70
2017-08-14T06:03:01.587Z,19.90
2017-08-14T06:05:31.006Z,19.90
2017-08-14T06:08:00.376Z,19.90
2017-08-14T06:10:30.560Z,20.20
2017-08-14T06:12:59.942Z,20.20
2017-08-14T06:15:29.324Z,20.60
2017-08-14T06:17:58.733Z,20.60
2017-08-14T06:20:27.774Z,20.80
2017-08-14T06:22:57.167Z,21.00
2017-08-14T06:25:26.565Z,21.20
2017-08-14T06:27:55.964Z,21.10
2017-08-14T06:30:25.345Z,21.30
2017-08-14T06:32:54.739Z,21.50
2017-08-14T06:35:24.158Z,21.50
2017-08-14T06:37:53.665Z,21.30
2017-08-14T06:40:23.045Z,21.40
2017-08-14T06:42:52.454Z,21.50
2017-08-14T06:45:21.836Z,21.70
2017-08-14T06:47:51.239Z,21.70
2017-08-14T06:50:20.615Z,21.90
2017-08-14T06:52:50.032Z,21.90
2017-08-14T06:55:19.416Z,22.00
2017-08-14T06:57:48.816Z,22.10
2017-08-14T07:00:18.204Z,22.20
2017-08-14T07:02:48.182Z,22.30
2017-08-14T07:05:17.570Z,22.30
2017-08-14T07:07:46.956Z,22.60
2017-08-14T07:10:16.358Z,22.90
2017-08-14T07:12:45.736Z,22.90
2017-08-14T07:15:15.909Z,23.30
2017-08-14T07:17:45.299Z,23.30
2017-08-14T07:20:14.709Z,23.30
2017-08-14T07:22:44.127Z,23.30
2017-08-14T07:25:13.536Z,23.10
2017-08-14T07:27:42.927Z,23.20
2017-08-14T07:30:12.353Z,23.70
2017-08-14T07:32:41.743Z,23.80
2017-08-14T07:35:11.141Z,23.70
2017-08-14T07:37:40.531Z,23.60
2017-08-14T07:40:09.959Z,23.90
2017-08-14T07:42:39.348Z,24.30
2017-08-14T07:45:08.882Z,24.40
2017-08-14T07:47:39.023Z,24.60
2017-08-14T07:50:08.424Z,24.60
2017-08-14T07:52:37.856Z,24.60
2017-08-14T07:55:07.257Z,24.50
2017-08-14T07:57:36.632Z,24.50
2017-08-14T08:00:06.034Z,24.80
2017-08-14T08:02:35.415Z,25.00
2017-08-14T08:05:04.806Z,25.00
2017-08-14T08:07:34.970Z,25.10
2017-08-14T08:10:04.343Z,25.10
2017-08-14T08:12:33.750Z,25.30
2017-08-14T08:15:03.128Z,25.50
2017-08-14T08:17:33.114Z,25.60
2017-08-14T08:20:02.497Z,25.60
2017-08-14T08:22:31.892Z,25.80
2017-08-14T08:25:01.505Z,25.70
2017-08-14T08:27:30.896Z,25.50
2017-08-14T08:30:00.281Z,25.10
2017-08-14T08:32:29.704Z,25.30
2017-08-14T08:34:59.076Z,25.60
2017-08-14T08:37:28.465Z,26.00
2017-08-14T08:39:58.621Z,25.90
2017-08-14T08:42:28.024Z,25.80
2017-08-14T08:44:57.420Z,26.00
2017-08-14T08:47:26.821Z,26.30
2017-08-14T08:49:56.217Z,26.10
2017-08-14T08:52:25.625Z,26.10
2017-08-14T08:54:55.023Z,26.30
2017-08-14T08:57:24.450Z,26.40
2017-08-14T08:59:53.846Z,26.20
2017-08-14T09:02:23.243Z,26.20
2017-08-14T09:04:52.624Z,26.50
2017-08-14T09:07:22.785Z,26.60
2017-08-14T09:09:52.183Z,26.60
2017-08-14T09:12:21.570Z,26.90
2017-08-14T09:14:50.967Z,27.00
2017-08-14T09:17:20.335Z,27.40
2017-08-14T09:19:50.503Z,26.40
2017-08-14T09:22:19.903Z,26.40
2017-08-14T09:24:49.305Z,26.10
2017-08-14T09:27:18.679Z,26.30
2017-08-14T09:29:48.854Z,25.60
2017-08-14T09:32:18.233Z,25.60
2017-08-14T09:34:47.631Z,25.50
2017-08-14T09:37:17.018Z,25.60
2017-08-14T09:39:47.191Z,25.10
2017-08-14T09:42:16.587Z,25.00
2017-08-14T09:44:45.992Z,25.70
2017-08-14T09:47:15.369Z,26.30
2017-08-14T09:49:44.774Z,26.80
2017-08-14T09:52:14.161Z,27.20
2017-08-14T09:54:43.564Z,27.60
2017-08-14T09:57:12.748Z,28.20
2017-08-14T09:59:42.578Z,28.20
2017-08-14T10:02:11.965Z,28.20
2017-08-14T10:04:41.359Z,28.50
2017-08-14T10:07:10.770Z,29.10
2017-08-14T10:09:39.967Z,28.90
2017-08-14T10:12:09.361Z,29.30
2017-08-14T10:14:38.756Z,28.80
2017-08-14T10:17:08.152Z,29.10
2017-08-14T10:19:37.525Z,28.50
2017-08-14T10:22:07.693Z,28.80
2017-08-14T10:24:37.095Z,28.80
2017-08-14T10:27:06.498Z,29.10
2017-08-14T10:29:35.887Z,29.00
2017-08-14T10:32:05.295Z,29.60
2017-08-14T10:34:34.705Z,30.10
2017-08-14T10:37:04.126Z,30.30
2017-08-14T10:39:33.173Z,30.10
2017-08-14T10:42:03.362Z,28.90
2017-08-14T10:44:32.756Z,29.00
2017-08-14T10:47:02.178Z,29.40
2017-08-14T10:49:31.553Z,29.70
2017-08-14T10:52:00.956Z,29.80
2017-08-14T10:54:30.355Z,30.20
2017-08-14T10:56:59.765Z,30.70
2017-08-14T10:59:29.169Z,30.80
2017-08-14T11:01:58.557Z,31.00
2017-08-14T11:04:27.953Z,31.70
2017-08-14T11:06:57.345Z,30.90
2017-08-14T11:09:26.804Z,30.40
2017-08-14T11:11:56.194Z,30.60
2017-08-14T11:14:25.607Z,30.90
2017-08-14T11:16:54.989Z,32.10
2017-08-14T11:19:24.412Z,32.40
2017-08-14T11:21:53.798Z,32.50
2017-08-14T11:24:23.219Z,32.80
2017-08-14T11:26:52.606Z,32.70
2017-08-14T11:29:21.991Z,33.10
2017-08-14T11:31:51.393Z,33.40
2017-08-14T11:34:20.784Z,32.90
2017-08-14T11:36:50.174Z,33.40
2017-08-14T11:39:19.568Z,34.10
2017-08-14T11:41:49.725Z,34.80
2017-08-14T11:44:19.131Z,34.80
2017-08-14T11:46:48.509Z,34.90
2017-08-14T11:49:17.904Z,34.80
2017-08-14T11:51:47.290Z,34.80
2017-08-14T11:54:16.693Z,34.00
2017-08-14T11:56:46.081Z,32.40
2017-08-14T11:59:15.469Z,31.60
2017-08-14T12:01:44.882Z,31.90
2017-08-14T12:04:14.268Z,32.00
2017-08-14T12:06:43.689Z,31.40
2017-08-14T12:09:13.080Z,32.60
2017-08-14T12:11:42.494Z,32.50
2017-08-14T12:14:11.883Z,33.10
2017-08-14T12:16:41.284Z,33.70
2017-08-14T12:19:10.688Z,34.70
2017-08-14T12:21:40.107Z,33.90
2017-08-14T12:24:09.471Z,32.10
2017-08-14T12:26:38.884Z,30.70
2017-08-14T12:29:08.266Z,29.70
2017-08-14T12:31:37.685Z,28.60
2017-08-14T12:34:07.075Z,28.90
2017-08-14T12:36:36.473Z,30.10
2017-08-14T12:39:05.166Z,29.90
2017-08-14T12:41:34.571Z,29.80
2017-08-14T12:44:03.966Z,29.80
2017-08-14T12:46:34.129Z,30.80
2017-08-14T12:49:03.961Z,30.80
2017-08-14T12:51:33.359Z,30.00
2017-08-14T12:54:02.732Z,29.60
2017-08-14T12:56:32.122Z,31.30
2017-08-14T12:59:01.510Z,31.70
2017-08-14T13:01:31.672Z,32.80
2017-08-14T13:04:01.065Z,32.70
2017-08-14T13:06:30.461Z,33.00
2017-08-14T13:08:59.653Z,31.90
2017-08-14T13:11:29.063Z,30.80
2017-08-14T13:13:58.453Z,30.00
2017-08-14T13:16:27.881Z,30.10
2017-08-14T13:18:57.298Z,30.10
2017-08-14T13:21:26.689Z,29.30
2017-08-14T13:23:56.090Z,28.40
2017-08-14T13:26:25.510Z,28.20
2017-08-14T13:28:54.897Z,27.80
2017-08-14T13:31:24.287Z,27.90
2017-08-14T13:33:54.801Z,27.20
2017-08-14T13:36:24.188Z,27.20
2017-08-14T13:38:53.578Z,26.80
2017-08-14T13:41:22.997Z,26.60
2017-08-14T13:43:52.367Z,27.30
2017-08-14T13:46:21.748Z,28.00
2017-08-14T13:48:51.163Z,28.70
2017-08-14T13:51:21.315Z,31.00
2017-08-14T13:53:50.718Z,31.00
2017-08-14T13:56:20.091Z,31.00
2017-08-14T13:58:49.512Z,30.20
2017-08-14T14:01:18.900Z,28.90
2017-08-14T14:03:48.306Z,28.10
2017-08-14T14:06:17.675Z,27.50
2017-08-14T14:08:47.097Z,26.90
2017-08-14T14:11:16.493Z,26.70
2017-08-14T14:13:45.898Z,26.70
2017-08-14T14:16:15.113Z,27.10
2017-08-14T14:18:44.516Z,27.80
2017-08-14T14:21:13.901Z,28.10
2017-08-14T14:23:43.321Z,28.30
2017-08-14T14:26:12.702Z,29.50
2017-08-14T14:28:42.100Z,29.90
2017-08-14T14:31:11.536Z,29.30
2017-08-14T14:33:41.132Z,29.00
2017-08-14T14:36:10.185Z,28.80
2017-08-14T14:38:40.347Z,27.70
2017-08-14T14:41:09.752Z,27.70
2017-08-14T14:43:39.153Z,27.40
2017-08-14T14:46:08.540Z,27.20
2017-08-14T14:48:38.101Z,27.30
2017-08-14T14:51:08.197Z,27.50
2017-08-14T14:53:37.584Z,27.30
2017-08-14T14:56:06.984Z,27.00
2017-08-14T14:58:36.390Z,26.80
2017-08-14T15:01:05.776Z,26.40
2017-08-14T15:03:35.169Z,26.10
2017-08-14T15:06:04.571Z,26.10
2017-08-14T15:08:33.963Z,26.10
2017-08-14T15:11:03.364Z,26.00
2017-08-14T15:13:32.755Z,26.10
2017-08-14T15:16:02.162Z,26.10
2017-08-14T15:18:31.544Z,26.10
2017-08-14T15:21:00.971Z,26.00
2017-08-14T15:23:30.356Z,26.00
2017-08-14T15:25:59.759Z,26.10
2017-08-14T15:28:29.132Z,26.10
2017-08-14T15:30:59.308Z,26.20
2017-08-14T15:33:28.698Z,26.20
2017-08-14T15:35:58.098Z,26.10
2017-08-14T15:38:27.500Z,26.20
2017-08-14T15:40:56.879Z,26.20
2017-08-14T15:43:26.279Z,26.20
2017-08-14T15:45:55.684Z,26.00
2017-08-14T15:48:25.094Z,25.80
2017-08-14T15:50:54.730Z,25.80
2017-08-14T15:53:24.910Z,25.60
2017-08-14T15:55:54.296Z,25.50
2017-08-14T15:58:23.700Z,25.40
2017-08-14T16:00:53.125Z,25.20
2017-08-14T16:03:22.536Z,25.00
2017-08-14T16:05:51.913Z,24.80
2017-08-14T16:08:21.304Z,24.70
2017-08-14T16:10:50.746Z,24.60
2017-08-14T16:13:20.915Z,24.60
2017-08-14T16:15:50.301Z,24.60
2017-08-14T16:18:19.701Z,24.50
2017-08-14T16:20:49.085Z,24.50
2017-08-14T16:23:18.545Z,24.60
2017-08-14T16:25:47.912Z,24.70
2017-08-14T16:28:17.323Z,24.90
2017-08-14T16:30:46.705Z,24.90
2017-08-14T16:33:16.109Z,24.90
2017-08-14T16:35:45.492Z,25.00
2017-08-14T16:38:14.894Z,24.90
2017-08-14T16:40:44.286Z,24.80
2017-08-14T16:43:13.695Z,24.80
2017-08-14T16:45:43.080Z,24.80
2017-08-14T16:48:12.484Z,24.70
2017-08-14T16:50:41.885Z,24.50
2017-08-14T16:53:11.286Z,24.50
2017-08-14T16:55:40.664Z,24.50
2017-08-14T16:58:10.054Z,24.50
2017-08-14T17:00:40.434Z,24.30
2017-08-14T17:03:11.788Z,24.30
2017-08-14T17:05:41.550Z,24.20
2017-08-14T17:08:11.717Z,24.10
2017-08-14T17:10:42.781Z,24.10
2017-08-14T17:13:11.965Z,24.00
2017-08-14T17:15:41.369Z,24.10
2017-08-14T17:18:10.928Z,24.00
2017-08-14T17:20:40.334Z,24.00
2017-08-14T17:23:09.730Z,23.90
2017-08-14T17:25:39.934Z,24.00
2017-08-14T17:28:09.323Z,24.00
2017-08-14T17:30:38.782Z,24.00
2017-08-14T17:33:08.181Z,24.00
2017-08-14T17:35:37.594Z,24.00
2017-08-14T17:38:07.799Z,23.80
2017-08-14T17:40:37.238Z,23.80
2017-08-14T17:43:08.455Z,23.60
2017-08-14T17:45:38.280Z,23.60
2017-08-14T17:48:08.653Z,23.50
2017-08-14T17:50:38.046Z,23.40
2017-08-14T17:53:07.483Z,23.40
2017-08-14T17:55:36.882Z,23.40
2017-08-14T17:58:06.272Z,23.40
2017-08-14T18:00:35.789Z,23.30
2017-08-14T18:03:04.996Z,23.30
2017-08-14T18:05:34.392Z,23.20
2017-08-14T18:08:05.081Z,23.20
2017-08-14T18:10:34.550Z,23.10
2017-08-14T18:13:04.005Z,23.00
2017-08-14T18:15:33.968Z,22.90
2017-08-14T18:18:04.645Z,22.90
2017-08-14T18:20:36.107Z,22.70
2017-08-14T18:23:06.278Z,22.60
2017-08-14T18:25:35.701Z,22.60
2017-08-14T18:28:05.336Z,22.60
2017-08-14T18:30:34.385Z,22.50
2017-08-14T18:33:03.790Z,22.50
2017-08-14T18:35:33.182Z,22.40
2017-08-14T18:38:02.586Z,22.20
2017-08-14T18:40:31.976Z,22.20
2017-08-14T18:43:01.383Z,22.10
2017-08-14T18:45:30.782Z,22.10
2017-08-14T18:48:00.160Z,21.90
2017-08-14T18:50:29.574Z,21.80
2017-08-14T18:52:59.046Z,21.70
2017-08-14T18:55:28.439Z,21.70
2017-08-14T18:57:57.830Z,21.70
2017-08-14T19:00:27.233Z,21.60
2017-08-14T19:02:56.632Z,21.70
2017-08-14T19:05:26.046Z,21.50
2017-08-14T19:07:56.413Z,21.50
2017-08-14T19:10:25.078Z,21.40
2017-08-14T19:12:55.236Z,21.40
2017-08-14T19:15:24.669Z,21.30
2017-08-14T19:17:54.071Z,21.30
2017-08-14T19:20:23.483Z,21.20
2017-08-14T19:22:53.677Z,21.10
2017-08-14T19:25:23.105Z,21.10
2017-08-14T19:27:53.282Z,21.10
2017-08-14T19:30:22.692Z,21.00
2017-08-14T19:32:52.465Z,21.00
2017-08-14T19:35:23.790Z,20.90
2017-08-14T19:37:53.310Z,20.90
2017-08-14T19:40:22.746Z,20.90
2017-08-14T19:42:52.174Z,20.90
2017-08-14T19:45:21.604Z,20.80
2017-08-14T19:47:51.017Z,20.80
2017-08-14T19:50:20.421Z,20.80
2017-08-14T19:52:50.073Z,20.80
2017-08-14T19:55:19.582Z,20.80
2017-08-14T19:57:50.596Z,20.70
2017-08-14T20:00:21.034Z,20.60
2017-08-14T20:02:50.473Z,20.50
2017-08-14T20:05:19.883Z,20.50
2017-08-14T20:07:49.313Z,20.40
2017-08-14T20:10:18.716Z,20.40
2017-08-14T20:12:51.407Z,20.30
2017-08-14T20:15:20.801Z,20.30
2017-08-14T20:17:50.213Z,20.20
2017-08-14T20:20:19.631Z,20.20
2017-08-14T20:22:54.024Z,20.10
2017-08-14T20:25:23.413Z,20.00
2017-08-14T20:27:53.418Z,20.10
2017-08-14T20:30:22.825Z,20.00
2017-08-14T20:32:52.244Z,20.00
2017-08-14T20:35:21.635Z,20.00
2017-08-14T20:37:51.029Z,19.90
2017-08-14T20:40:21.198Z,19.90
2017-08-14T20:42:50.593Z,19.90
2017-08-14T20:45:20.752Z,19.90
2017-08-14T20:47:49.787Z,19.80
2017-08-14T20:50:19.978Z,19.70
2017-08-14T20:52:49.360Z,19.70
2017-08-14T20:55:18.769Z,19.70
2017-08-14T20:57:47.952Z,19.70
2017-08-14T21:00:17.362Z,19.60
2017-08-14T21:02:46.746Z,19.60
2017-08-14T21:05:16.940Z,19.50
2017-08-14T21:07:46.146Z,19.50
2017-08-14T21:10:16.324Z,19.40
2017-08-14T21:12:45.732Z,19.40
2017-08-14T21:15:15.124Z,19.30
2017-08-14T21:17:44.532Z,19.30
2017-08-14T21:20:13.941Z,19.30
2017-08-14T21:22:43.332Z,19.30
2017-08-14T21:25:12.757Z,19.30
2017-08-14T21:27:42.206Z,19.30
2017-08-14T21:30:11.657Z,19.20
2017-08-14T21:32:41.817Z,19.20
2017-08-14T21:35:11.206Z,19.10
2017-08-14T21:37:40.640Z,19.10
2017-08-14T21:40:10.107Z,19.00
2017-08-14T21:42:40.281Z,19.00
2017-08-14T21:45:09.690Z,19.00
2017-08-14T21:47:39.101Z,19.00
2017-08-14T21:50:08.315Z,18.90
2017-08-14T21:52:37.714Z,18.90
2017-08-14T21:55:07.121Z,18.80
2017-08-14T21:57:36.508Z,18.70
2017-08-14T22:00:05.560Z,18.80
2017-08-14T22:02:34.769Z,18.70
2017-08-14T22:05:04.173Z,18.70
2017-08-14T22:07:33.560Z,18.70
2017-08-14T22:10:02.996Z,18.70
2017-08-14T22:12:32.403Z,18.60
2017-08-14T22:15:01.610Z,18.60
2017-08-14T22:17:30.817Z,18.50
2017-08-14T22:20:00.201Z,18.40
2017-08-14T22:22:29.604Z,18.50
2017-08-14T22:24:59.002Z,18.50
2017-08-14T22:27:28.046Z,18.50
2017-08-14T22:29:58.226Z,18.40
2017-08-14T22:32:27.645Z,18.40
2017-08-14T22:34:57.028Z,18.40
2017-08-14T22:37:26.437Z,18.30
2017-08-14T22:39:55.849Z,18.30
2017-08-14T22:42:25.251Z,18.30
2017-08-14T22:44:54.655Z,18.20
2017-08-14T22:47:24.045Z,18.20
2017-08-14T22:49:53.434Z,18.20
2017-08-14T22:52:22.828Z,18.20
2017-08-14T22:54:52.221Z,18.20
2017-08-14T22:57:22.398Z,18.10
2017-08-14T22:59:51.837Z,18.10
2017-08-14T23:02:21.240Z,18.00
2017-08-14T23:04:50.424Z,18.00
2017-08-14T23:07:19.843Z,18.00
2017-08-14T23:09:49.220Z,17.90
2017-08-14T23:12:18.652Z,17.90
2017-08-14T23:14:48.024Z,17.90
2017-08-14T23:17:17.698Z,17.80
2017-08-14T23:19:46.910Z,17.80
2017-08-14T23:22:16.564Z,17.80
2017-08-14T23:24:46.034Z,17.70
2017-08-14T23:27:15.478Z,17.80
2017-08-14T23:29:45.660Z,17.60
2017-08-14T23:32:15.065Z,17.60
2017-08-14T23:34:44.481Z,17.60
2017-08-14T23:37:14.134Z,17.50
2017-08-14T23:39:43.545Z,17.50
2017-08-14T23:42:12.945Z,17.50
2017-08-14T23:44:42.776Z,17.50
2017-08-14T23:47:13.207Z,17.50
2017-08-14T23:49:42.615Z,17.50
2017-08-14T23:52:12.016Z,17.50
2017-08-14T23:54:42.445Z,17.40
2017-08-14T23:57:12.109Z,17.40
2017-08-14T23:59:41.525Z,17.40
